Date,TemperatureHighF,TemperatureAvgF,TemperatureLowF,DewpointHighF,DewpointAvgF,DewpointLowF,HumidityHigh,HumidityAvg,HumidityLow,PressureMaxIn,PressureMinIn,WindSpeedMaxMPH,WindSpeedAvgMPH,GustSpeedMaxMPH,PrecipitationSumIn
2013-8-3,87,87,87,78,78,78,75,75,75,29.98,29.98,1,1,13,0.00
2013-8-4,92,84,76,79,77,74,97,80,63,29.98,29.89,3,1,13,0.03
2013-8-5,92,79,74,80,76,73,98,92,65,29.93,29.84,4,0,13,0.32
2013-8-6,88,80,72,80,76,72,99,88,72,29.91,29.83,4,0,12,0.00
2013-8-7,88,83,80,79,78,77,91,83,73,29.91,29.86,3,1,6,0.00
2013-8-8,91,83,76,78,77,75,97,82,65,29.98,29.88,3,1,8,0.00
2013-8-9,90,82,78,79,77,75,92,83,65,30.00,29.91,4,0,10,0.00
2013-8-10,92,82,73,80,76,72,97,82,61,30.06,29.98,3,1,13,0.00
2013-8-11,82,39,74,78,-10,-100,98,49,89,30.08,30.03,0,-488,3,0.00
2013-8-12,92,41,74,76,-16,-100,97,34,58,30.00,-32.77,3,-286,10,0.00
2013-8-13,94,82,72,78,75,72,98,80,54,29.98,29.85,3,0,12,0.00
2013-8-14,90,83,75,79,76,73,97,81,67,29.93,29.82,3,1,14,0.00
2013-8-15,93,81,73,79,74,72,97,82,58,29.96,29.86,3,1,14,0.16
2013-8-16,91,80,73,78,75,72,98,87,58,29.98,29.89,6,0,11,0.75
2013-8-17,91,81,74,81,77,73,99,88,71,30.02,29.93,3,0,13,0.01
2013-8-18,80,78,76,78,76,75,98,96,93,30.01,29.98,0,0,0,0.00
2013-8-19,92,83,79,79,78,74,96,83,60,30.01,29.91,4,0,12,0.00
2013-8-20,91,83,76,79,77,74,96,83,66,30.03,29.94,5,1,13,0.00
2013-8-21,88,81,75,80,77,74,96,88,75,30.06,29.97,4,0,12,0.23
2013-8-22,88,81,76,80,77,75,97,89,75,30.03,29.92,5,1,13,0.07
2013-8-23,88,80,75,79,77,75,99,90,75,29.95,29.89,3,0,9,0.01
2013-8-24,87,78,74,79,76,73,99,94,74,30.05,29.93,4,0,15,1.37
2013-8-25,85,79,74,77,75,73,98,88,72,30.09,30.01,4,1,13,0.01
2013-8-26,88,81,77,79,75,73,91,82,70,30.06,29.96,6,2,14,0.00
2013-8-27,87,79,71,75,71,67,98,77,59,30.00,29.92,5,1,13,0.01
2013-8-28,87,78,68,74,70,67,98,78,55,29.99,29.91,4,0,10,0.00
2013-8-29,91,80,70,76,72,69,97,78,52,29.95,29.84,2,0,8,0.00
2013-8-30,92,82,73,78,74,72,97,79,55,29.90,29.81,3,0,10,0.00
2013-8-31,95,82,73,78,74,71,97,78,49,29.89,29.80,2,0,9,0.00